Time;durP1;ratioP1;P1;durP2;ratioP2;P2;SDS_P1;SDS_P2;PMS_P1;PMS_P2;Temp;Humidity;BMP_temperature;BMP_pressure;BME280_temperature;BME280_humidity;BME280_pressure;Samples;Min_cycle;Max_cycle;Signal;HPM_P1;HPM_P2
2021/10/12 00:01:48;;;;;;;17.92;15.05;;;;;;;13.27;61.81;99353.28;5032694;28;20024;-52
2021/10/12 00:04:14;;;;;;;16.85;13.85;;;;;;;13.50;61.52;99339.72;5031290;28;20025;-52
2021/10/12 00:06:40;;;;;;;18.90;14.90;;;;;;;13.71;61.00;99344.78;5032628;28;20369;-52
2021/10/12 00:09:05;;;;;;;16.92;15.13;;;;;;;13.77;60.34;99348.44;5031275;28;20514;-52
2021/10/12 00:11:31;;;;;;;16.85;14.40;;;;;;;13.55;60.82;99342.56;5032524;28;20029;-53
2021/10/12 00:13:57;;;;;;;17.15;14.68;;;;;;;13.56;61.02;99342.38;5032497;28;20033;-53
2021/10/12 00:16:23;;;;;;;15.23;13.65;;;;;;;13.59;60.99;99341.16;5031091;28;20022;-53
2021/10/12 00:18:49;;;;;;;17.98;14.18;;;;;;;13.76;60.78;99350.28;5032398;28;20499;-52
2021/10/12 00:21:15;;;;;;;18.02;15.80;;;;;;;13.82;60.18;99350.44;5032365;28;20078;-52
2021/10/12 00:23:40;;;;;;;16.42;14.57;;;;;;;13.78;60.50;99352.69;5030953;28;20488;-52
2021/10/12 00:26:06;;;;;;;18.23;13.93;;;;;;;13.87;60.18;99358.59;5032266;28;20385;-52
2021/10/12 00:28:32;;;;;;;21.27;14.38;;;;;;;13.88;60.13;99354.91;5032271;28;20017;-52
2021/10/12 00:30:58;;;;;;;17.38;13.98;;;;;;;13.89;60.35;99356.53;5038483;28;20564;-52
2021/10/12 00:33:24;;;;;;;19.30;13.40;;;;;;;13.87;60.47;99356.75;5052106;28;20021;-53
2021/10/12 00:35:49;;;;;;;21.05;14.85;;;;;;;13.90;60.07;99355.50;5052081;28;20028;-52
2021/10/12 00:38:15;;;;;;;16.98;13.88;;;;;;;13.85;60.13;99357.97;5052041;28;20394;-52
2021/10/12 00:40:41;;;;;;;16.48;14.20;;;;;;;13.82;60.74;99350.44;5051987;28;20104;-52
2021/10/12 00:43:08;;;;;;;17.13;13.70;;;;;;;13.79;60.31;99347.22;5050665;28;20116;-52
2021/10/12 00:45:35;;;;;;;17.25;14.38;;;;;;;13.71;60.47;99349.25;5050471;28;20025;-53
2021/10/12 00:48:07;;;;;;;18.67;14.50;;;;;;;13.73;60.51;99340.13;5051890;28;20032;-52
2021/10/12 00:50:34;;;;;;;16.38;13.48;;;;;;;13.78;60.32;99337.69;5051845;28;20411;-53
2021/10/12 00:53:01;;;;;;;16.10;13.73;;;;;;;13.88;60.32;99339.06;5050485;28;20035;-52
2021/10/12 00:55:27;;;;;;;16.67;14.10;;;;;;;13.96;60.17;99330.94;5051762;28;20033;-53
2021/10/12 00:57:54;;;;;;;16.75;12.77;;;;;;;13.95;60.20;99339.88;5051770;28;20499;-52
2021/10/12 01:00:20;;;;;;;17.13;14.55;;;;;;;13.91;60.14;99331.56;5051692;28;20564;-52
2021/10/12 01:02:45;;;;;;;16.60;14.57;;;;;;;13.93;60.26;99337.44;5051704;28;20025;-52
2021/10/12 01:05:12;;;;;;;20.10;13.77;;;;;;;13.95;59.95;99334.63;5051613;28;20017;-52
2021/10/12 01:07:37;;;;;;;20.40;14.85;;;;;;;13.96;60.13;99331.78;5051613;28;20021;-52
2021/10/12 01:10:06;;;;;;;16.88;14.63;;;;;;;13.95;60.02;99321.41;5051599;28;20491;-52
2021/10/12 01:12:32;;;;;;;16.42;13.57;;;;;;;13.80;60.03;99319.00;5051527;28;20032;-52
2021/10/12 01:14:58;;;;;;;19.67;14.60;;;;;;;13.73;60.35;99318.22;5051627;28;20051;-52
2021/10/12 01:17:24;;;;;;;18.50;14.30;;;;;;;13.75;60.81;99322.25;5050198;28;20021;-52
2021/10/12 01:19:50;;;;;;;23.45;14.60;;;;;;;13.78;60.15;99324.50;5051508;28;20025;-52
2021/10/12 01:22:15;;;;;;;20.67;14.23;;;;;;;13.69;60.52;99325.72;5051528;28;20510;-52
2021/10/12 01:24:41;;;;;;;18.52;14.32;;;;;;;13.70;60.43;99324.72;5050120;28;20410;-52
2021/10/12 01:27:07;;;;;;;19.05;15.40;;;;;;;13.72;60.53;99324.50;5051453;28;20455;-52
2021/10/12 01:29:33;;;;;;;16.42;13.77;;;;;;;13.73;60.69;99324.28;5050142;28;20082;-53
2021/10/12 01:31:59;;;;;;;17.58;15.35;;;;;;;13.70;60.57;99326.53;5049832;28;20073;-52
2021/10/12 01:34:25;;;;;;;21.17;14.95;;;;;;;13.61;60.51;99333.03;5051421;28;20104;-52
2021/10/12 01:36:51;;;;;;;23.85;15.15;;;;;;;13.50;60.71;99334.44;5051416;28;20025;-52
2021/10/12 01:39:18;;;;;;;20.33;15.95;;;;;;;13.42;60.91;99338.13;5051332;28;20029;-52
2021/10/12 01:41:44;;;;;;;21.38;15.13;;;;;;;13.40;61.54;99337.50;5051290;28;20394;-52
2021/10/12 01:44:11;;;;;;;18.95;14.98;;;;;;;13.46;61.28;99341.13;5051274;28;20450;-53
2021/10/12 01:46:37;;;;;;;23.27;16.00;;;;;;;13.52;61.08;99335.03;5051219;28;20064;-52
2021/10/12 01:49:04;;;;;;;23.95;16.17;;;;;;;13.52;60.99;99340.31;5051255;28;20060;-52
2021/10/12 01:51:29;;;;;;;22.65;15.48;;;;;;;13.54;61.08;99331.22;5049918;28;20028;-53
2021/10/12 01:53:55;;;;;;;24.23;17.45;;;;;;;13.59;60.97;99341.16;5050214;28;20029;-52
2021/10/12 01:56:21;;;;;;;16.95;15.18;;;;;;;13.63;60.90;99346.81;5051113;28;20029;-52
2021/10/12 01:58:50;;;;;;;20.70;14.80;;;;;;;13.60;60.81;99345.38;5051241;28;20021;-53
2021/10/12 02:01:24;;;;;;;18.73;15.55;;;;;;;13.55;60.71;99343.38;5051066;28;20025;-53
2021/10/12 02:03:50;;;;;;;18.25;15.95;;;;;;;13.37;60.85;99343.97;5051108;28;20025;-52
2021/10/12 02:06:16;;;;;;;17.90;15.57;;;;;;;13.29;61.48;99340.69;5049744;28;20495;-52
2021/10/12 02:08:43;;;;;;;31.42;21.38;;;;;;;13.30;61.97;99350.25;5051102;28;20027;-52
2021/10/12 02:11:08;;;;;;;19.88;16.48;;;;;;;13.36;61.82;99341.53;5052013;28;20510;-52
2021/10/12 02:13:34;;;;;;;23.58;17.38;;;;;;;13.36;61.79;99347.63;5053370;28;20051;-52
2021/10/12 02:16:00;;;;;;;21.77;17.52;;;;;;;13.44;61.86;99345.78;5054673;28;20136;-52
2021/10/12 02:18:25;;;;;;;20.40;16.58;;;;;;;13.49;61.35;99346.81;5053297;28;20025;-52
2021/10/12 02:20:51;;;;;;;21.63;16.63;;;;;;;13.57;61.30;99343.16;5054554;28;20021;-52
2021/10/12 02:23:17;;;;;;;23.80;17.92;;;;;;;13.65;61.07;99344.78;5054525;28;20048;-53
2021/10/12 02:25:43;;;;;;;19.98;16.73;;;;;;;13.69;60.81;99343.38;5054387;28;20063;-53
2021/10/12 02:28:10;;;;;;;24.25;17.20;;;;;;;13.52;61.17;99333.25;5054438;28;20052;-53
2021/10/12 02:30:35;;;;;;;19.75;17.15;;;;;;;13.42;61.81;99330.19;5054186;28;20049;-52
2021/10/12 02:33:01;;;;;;;20.27;17.63;;;;;;;13.29;61.83;99331.00;5054369;28;20506;-52
2021/10/12 02:35:27;;;;;;;18.42;16.40;;;;;;;13.19;62.07;99335.81;5054302;28;20086;-52
2021/10/12 02:37:53;;;;;;;20.35;16.58;;;;;;;13.28;62.42;99323.25;5052965;28;20187;-52
2021/10/12 02:40:18;;;;;;;19.83;16.45;;;;;;;13.39;62.00;99318.22;5052869;28;20028;-52
2021/10/12 02:42:48;;;;;;;24.75;19.30;;;;;;;13.50;62.00;99313.34;5052888;28;20054;-53
2021/10/12 02:45:14;;;;;;;19.38;16.48;;;;;;;13.50;61.66;99315.97;5054027;28;20049;-52
2021/10/12 02:47:40;;;;;;;24.23;17.00;;;;;;;13.41;61.66;99314.59;5054088;28;20060;-53
2021/10/12 02:50:07;;;;;;;21.95;16.83;;;;;;;13.27;61.71;99313.72;5053954;28;20059;-52
2021/10/12 02:52:33;;;;;;;21.33;15.80;;;;;;;13.29;62.34;99309.06;5054013;28;20023;-52
2021/10/12 02:54:58;;;;;;;21.98;16.63;;;;;;;13.37;61.84;99314.97;5053939;28;20111;-52
2021/10/12 02:57:24;;;;;;;22.58;17.05;;;;;;;13.39;61.57;99312.94;5053832;28;20534;-52
2021/10/12 02:59:50;;;;;;;24.85;16.80;;;;;;;13.34;61.81;99312.75;5053861;28;20028;-52
2021/10/12 03:02:16;;;;;;;25.58;16.48;;;;;;;13.25;62.07;99300.75;5052499;28;20029;-53
2021/10/12 03:04:41;;;;;;;19.40;15.40;;;;;;;13.36;62.04;99305.47;5053673;28;20835;-52
2021/10/12 03:07:07;;;;;;;23.88;16.63;;;;;;;13.44;61.95;99304.44;5053693;28;20115;-52
2021/10/12 03:09:33;;;;;;;20.00;16.98;;;;;;;13.36;61.63;99294.91;5052378;28;20055;-52
2021/10/12 03:11:58;;;;;;;21.98;17.65;;;;;;;13.26;61.62;99293.63;5052278;28;20078;-52
2021/10/12 03:14:24;;;;;;;32.65;25.05;;;;;;;13.13;62.10;99291.81;5053533;28;20036;-52
2021/10/12 03:16:50;;;;;;;25.80;23.23;;;;;;;13.08;62.18;99291.59;5053550;28;20026;-51
2021/10/12 03:19:16;;;;;;;19.77;16.75;;;;;;;13.11;62.08;99286.75;5053437;28;20095;-52
2021/10/12 03:21:57;;;;;;;22.65;17.65;;;;;;;13.14;62.28;99286.34;5052393;28;20053;-52
2021/10/12 03:24:23;;;;;;;21.63;16.20;;;;;;;13.12;62.13;99287.56;5052025;28;20114;-52
2021/10/12 03:26:48;;;;;;;20.60;15.73;;;;;;;13.12;61.96;99272.56;5053356;28;20048;-52
2021/10/12 03:29:14;;;;;;;20.25;15.23;;;;;;;13.13;62.13;99268.91;5053293;28;20025;-52
2021/10/12 03:31:40;;;;;;;51.80;36.45;;;;;;;13.06;61.91;99272.53;5051644;28;20048;-52
2021/10/12 03:34:06;;;;;;;25.92;17.25;;;;;;;13.03;62.33;99265.06;5051873;28;20032;-53
2021/10/12 03:36:31;;;;;;;22.50;16.70;;;;;;;13.11;61.72;99264.88;5053146;28;20021;-52
2021/10/12 03:38:57;;;;;;;27.63;16.65;;;;;;;13.10;61.79;99264.06;5053104;28;20539;-52
2021/10/12 03:41:23;;;;;;;27.00;16.55;;;;;;;12.96;61.69;99260.59;5051736;28;20407;-52
2021/10/12 03:43:48;;;;;;;22.42;16.00;;;;;;;12.89;62.03;99261.59;5052981;28;20108;-53
2021/10/12 03:46:14;;;;;;;23.67;15.60;;;;;;;12.83;62.21;99254.50;5051620;28;20025;-52
2021/10/12 03:48:40;;;;;;;23.23;15.82;;;;;;;12.85;61.91;99260.38;5051608;28;20530;-52
2021/10/12 03:51:09;;;;;;;24.83;16.60;;;;;;;12.77;62.35;99251.66;5052822;28;20021;-52
2021/10/12 03:53:36;;;;;;;27.60;15.63;;;;;;;12.72;62.06;99253.28;5051552;28;20025;-52
2021/10/12 03:56:02;;;;;;;25.33;19.08;;;;;;;12.74;61.94;99261.78;5052751;28;20028;-52
2021/10/12 03:58:28;;;;;;;22.55;15.50;;;;;;;12.76;62.26;99260.56;5052824;28;20517;-52
2021/10/12 04:00:53;;;;;;;21.83;15.63;;;;;;;12.83;61.83;99257.94;5052685;28;20108;-52
2021/10/12 04:03:20;;;;;;;18.38;15.27;;;;;;;12.85;62.33;99257.75;5052663;28;20024;-52
2021/10/12 04:05:46;;;;;;;21.85;15.75;;;;;;;12.76;62.05;99267.66;5052551;28;20071;-52
2021/10/12 04:08:11;;;;;;;21.33;15.40;;;;;;;12.70;62.28;99268.47;5051224;28;20025;-52
2021/10/12 04:10:37;;;;;;;24.92;16.25;;;;;;;12.78;62.19;99270.91;5051240;28;20078;-52
2021/10/12 04:13:04;;;;;;;27.05;16.75;;;;;;;12.87;62.10;99264.44;5053045;28;20041;-53
2021/10/12 04:15:32;;;;;;;19.98;15.10;;;;;;;12.97;61.70;99256.13;5052497;28;20021;-53
2021/10/12 04:17:58;;;;;;;25.40;14.80;;;;;;;12.97;61.59;99264.03;5052434;28;20494;-52
2021/10/12 04:20:26;;;;;;;21.85;15.73;;;;;;;12.94;61.73;99254.72;5052356;28;20071;-52
2021/10/12 04:22:55;;;;;;;20.27;15.68;;;;;;;12.99;61.58;99254.09;5052330;28;20025;-53
2021/10/12 04:25:21;;;;;;;22.88;15.20;;;;;;;13.08;61.90;99254.72;5050866;28;20394;-53
2021/10/12 04:27:47;;;;;;;22.20;15.95;;;;;;;13.11;61.09;99254.31;5052189;28;20017;-52
2021/10/12 04:30:13;;;;;;;24.50;15.82;;;;;;;13.09;61.11;99248.44;5050621;28;20485;-53
2021/10/12 04:32:39;;;;;;;22.85;16.00;;;;;;;13.10;61.20;99252.69;5051880;28;20104;-53
2021/10/12 04:35:06;;;;;;;23.02;15.60;;;;;;;13.08;60.94;99259.97;5052080;28;20031;-52
2021/10/12 04:37:31;;;;;;;24.38;16.10;;;;;;;13.09;61.28;99265.06;5050754;28;20044;-52
2021/10/12 04:39:57;;;;;;;23.23;16.05;;;;;;;13.14;60.86;99261.84;5052048;28;20429;-53
2021/10/12 04:42:22;;;;;;;30.10;15.40;;;;;;;13.18;60.50;99261.22;5051970;28;20558;-53
2021/10/12 04:44:53;;;;;;;27.63;16.60;;;;;;;13.11;60.54;99254.31;5051877;28;20040;-52
2021/10/12 04:47:21;;;;;;;22.00;14.63;;;;;;;13.12;60.88;99243.59;5051969;28;20078;-53
2021/10/12 04:49:48;;;;;;;21.23;14.38;;;;;;;13.19;60.69;99240.94;5050594;28;20029;-53
2021/10/12 04:52:14;;;;;;;20.98;15.38;;;;;;;13.02;60.03;99237.91;5051843;28;20017;-53
2021/10/12 04:54:40;;;;;;;19.95;15.63;;;;;;;12.73;60.58;99239.09;5051805;28;20070;-52
2021/10/12 04:57:06;;;;;;;23.48;15.40;;;;;;;12.58;61.29;99237.44;5051790;28;20028;-53
2021/10/12 04:59:32;;;;;;;23.15;15.98;;;;;;;12.47;61.62;99243.28;5051775;28;20021;-53
2021/10/12 05:01:58;;;;;;;19.50;16.38;;;;;;;12.42;61.92;99248.34;5051699;28;20025;-53
2021/10/12 05:04:24;;;;;;;21.42;16.23;;;;;;;12.46;62.25;99246.94;5050319;28;20033;-52
2021/10/12 05:06:52;;;;;;;22.90;16.60;;;;;;;12.48;62.09;99238.84;5051677;28;20018;-52
2021/10/12 05:09:18;;;;;;;20.60;15.77;;;;;;;12.54;61.93;99249.38;5051683;28;20078;-52
2021/10/12 05:11:44;;;;;;;23.60;15.63;;;;;;;12.46;61.91;99246.13;5051629;28;20557;-52
2021/10/12 05:14:10;;;;;;;21.67;15.63;;;;;;;12.39;62.18;99244.28;5051576;28;20051;-53
2021/10/12 05:16:38;;;;;;;26.27;16.02;;;;;;;12.39;62.01;99241.66;5051628;28;20380;-52
2021/10/12 05:19:04;;;;;;;24.05;16.05;;;;;;;12.41;62.03;99253.81;5051579;28;20108;-52
2021/10/12 05:21:31;;;;;;;20.10;15.27;;;;;;;12.43;62.10;99239.41;5050177;28;20070;-52
2021/10/12 05:23:57;;;;;;;19.60;15.05;;;;;;;12.47;61.74;99243.28;5050149;28;20017;-52
2021/10/12 05:26:23;;;;;;;29.08;15.02;;;;;;;12.44;62.22;99250.78;5051515;28;20028;-52
2021/10/12 05:28:53;;;;;;;29.75;16.20;;;;;;;12.34;62.01;99251.97;5051463;28;20025;-52
2021/10/12 05:31:19;;;;;;;24.98;16.58;;;;;;;12.37;62.07;99250.75;5051169;28;20522;-52
2021/10/12 05:33:46;;;;;;;20.80;15.70;;;;;;;12.44;62.12;99248.97;5050104;28;20032;-52
2021/10/12 05:36:12;;;;;;;21.52;16.55;;;;;;;12.39;61.61;99252.19;5050061;28;20025;-53
2021/10/12 05:38:38;;;;;;;21.30;16.15;;;;;;;12.26;62.09;99246.06;5051368;28;20092;-52
2021/10/12 05:41:04;;;;;;;26.27;16.15;;;;;;;12.18;62.30;99245.22;5050018;28;20032;-53
2021/10/12 05:43:30;;;;;;;22.23;16.48;;;;;;;12.05;62.38;99244.34;5066743;28;20040;-53
2021/10/12 05:45:55;;;;;;;30.60;17.33;;;;;;;11.90;62.74;99245.31;5053314;28;20068;-53
2021/10/12 05:48:21;;;;;;;31.67;17.20;;;;;;;11.82;63.57;99253.31;5054414;28;20056;-53
2021/10/12 05:50:48;;;;;;;29.58;18.25;;;;;;;11.80;63.28;99253.50;5055189;28;20108;-53
2021/10/12 05:53:25;;;;;;;31.70;18.02;;;;;;;11.85;63.31;99257.38;5053773;28;20027;-52
2021/10/12 05:56:01;;;;;;;26.40;17.40;;;;;;;11.80;63.34;99253.50;5055118;28;20029;-53
2021/10/12 05:58:32;;;;;;;27.92;17.10;;;;;;;11.87;63.62;99260.63;5055086;28;20029;-53
2021/10/12 06:01:00;;;;;;;35.28;17.50;;;;;;;11.91;63.22;99257.47;5054960;28;20550;-53
2021/10/12 06:03:27;;;;;;;29.88;17.83;;;;;;;11.85;63.19;99260.00;5054916;28;20418;-52
2021/10/12 06:05:53;;;;;;;27.35;17.65;;;;;;;11.82;63.34;99261.22;5054825;28;20099;-52
2021/10/12 06:08:19;;;;;;;27.50;15.90;;;;;;;11.92;63.59;99264.34;5054871;28;20025;-52
2021/10/12 06:10:44;;;;;;;27.70;17.48;;;;;;;12.07;63.24;99263.38;5054759;28;20430;-53
2021/10/12 06:13:11;;;;;;;30.65;16.65;;;;;;;12.09;62.76;99256.09;5054741;28;20100;-52
2021/10/12 06:15:40;;;;;;;23.92;16.58;;;;;;;12.13;62.95;99252.06;5054734;28;20554;-53
2021/10/12 06:18:06;;;;;;;26.92;18.42;;;;;;;12.15;62.75;99250.91;5054662;28;20013;-52
2021/10/12 06:20:32;;;;;;;25.52;16.58;;;;;;;12.24;62.76;99245.47;5053279;28;20029;-53
2021/10/12 06:22:58;;;;;;;30.95;16.00;;;;;;;12.38;62.54;99249.75;5054589;28;20027;-52
2021/10/12 06:25:24;;;;;;;132.27;106.68;;;;;;;12.49;61.85;99256.25;5053393;28;20024;-52
2021/10/12 06:27:51;;;;;;;34.22;25.80;;;;;;;12.56;61.52;99252.63;5054725;28;20021;-52
2021/10/12 06:30:16;;;;;;;99.30;80.18;;;;;;;12.52;61.72;99251.41;5054187;28;20032;-53
2021/10/12 06:32:43;;;;;;;40.60;29.65;;;;;;;12.47;61.78;99255.63;5054508;28;20033;-53
2021/10/12 06:35:09;;;;;;;26.20;19.58;;;;;;;12.46;61.53;99261.94;5054319;28;20032;-52
2021/10/12 06:37:35;;;;;;;34.08;23.63;;;;;;;12.34;61.50;99266.94;5052994;28;20025;-52
2021/10/12 06:40:01;;;;;;;27.02;18.98;;;;;;;12.17;62.07;99271.72;5052908;28;20444;-52
2021/10/12 06:42:26;;;;;;;25.38;17.85;;;;;;;12.10;62.44;99269.06;5052900;28;20032;-52
2021/10/12 06:44:52;;;;;;;35.15;17.88;;;;;;;12.09;62.43;99271.91;5054077;28;20029;-52
2021/10/12 06:47:18;;;;;;;26.98;17.35;;;;;;;12.16;62.06;99259.59;5052783;28;20029;-53
2021/10/12 06:49:44;;;;;;;38.78;18.85;;;;;;;12.27;62.16;99255.56;5054035;28;20025;-52
2021/10/12 06:52:10;;;;;;;23.90;16.98;;;;;;;12.42;62.02;99269.41;5052695;28;20052;-52
2021/10/12 06:54:36;;;;;;;21.48;17.05;;;;;;;12.56;61.63;99275.53;5054016;28;20025;-53
2021/10/12 06:57:09;;;;;;;22.80;16.95;;;;;;;12.65;61.37;99276.16;5052402;28;20081;-52
2021/10/12 06:59:35;;;;;;;33.03;25.00;;;;;;;12.75;60.92;99274.75;5053963;28;20028;-52
2021/10/12 07:02:01;;;;;;;31.25;18.23;;;;;;;12.69;60.90;99277.38;5053762;28;20029;-52
2021/10/12 07:04:27;;;;;;;27.33;16.85;;;;;;;12.72;60.92;99277.78;5052355;28;20542;-53
2021/10/12 07:06:52;;;;;;;22.92;16.00;;;;;;;12.76;60.26;99283.47;5053753;28;20163;-52
2021/10/12 07:09:18;;;;;;;23.67;16.75;;;;;;;12.75;60.47;99284.47;5052355;28;20025;-52
2021/10/12 07:11:45;;;;;;;24.10;16.80;;;;;;;12.76;60.34;99286.91;5053659;28;20057;-52
2021/10/12 07:14:12;;;;;;;23.02;16.20;;;;;;;12.81;60.63;99288.13;5053669;28;20075;-52
2021/10/12 07:16:38;;;;;;;24.23;17.25;;;;;;;12.88;60.53;99297.69;5052222;28;20118;-52
2021/10/12 07:19:05;;;;;;;27.35;18.95;;;;;;;12.82;60.18;99295.00;5053535;28;20025;-53
2021/10/12 07:21:31;;;;;;;25.00;16.80;;;;;;;12.76;60.63;99288.75;5053441;28;20495;-53
2021/10/12 07:23:57;;;;;;;24.60;16.27;;;;;;;12.77;60.40;99285.09;5053379;28;20246;-53
2021/10/12 07:26:22;;;;;;;23.98;18.65;;;;;;;12.55;60.49;99274.69;5052005;28;20495;-52
2021/10/12 07:28:49;;;;;;;22.17;17.75;;;;;;;12.44;61.24;99280.53;5053347;28;20029;-52
2021/10/12 07:31:15;;;;;;;21.58;16.52;;;;;;;12.50;61.25;99286.84;5053060;28;20518;-53
2021/10/12 07:33:40;;;;;;;26.65;18.25;;;;;;;12.57;61.12;99285.03;5053214;28;20029;-53
2021/10/12 07:36:06;;;;;;;30.23;17.88;;;;;;;12.62;60.99;99287.91;5051849;28;20067;-53
2021/10/12 07:38:32;;;;;;;27.70;16.98;;;;;;;12.76;60.39;99281.66;5051845;28;20029;-52
2021/10/12 07:40:58;;;;;;;24.65;17.15;;;;;;;12.84;60.21;99285.91;5053063;28;20033;-53
2021/10/12 07:43:24;;;;;;;24.55;17.15;;;;;;;12.99;60.12;99288.34;5053083;28;20025;-52
2021/10/12 07:45:50;;;;;;;24.48;17.55;;;;;;;13.11;59.77;99292.00;5051605;28;20025;-53
2021/10/12 07:48:17;;;;;;;24.30;17.10;;;;;;;13.14;59.14;99294.25;5052976;28;20049;-53
2021/10/12 07:50:43;;;;;;;26.40;16.23;;;;;;;13.09;59.60;99293.25;5052941;28;20039;-52
2021/10/12 07:53:10;;;;;;;23.45;16.67;;;;;;;13.06;59.36;99286.56;5051579;28;20021;-52
2021/10/12 07:58:04;;;;;;;19.77;15.13;;;;;;;12.91;59.36;99286.72;5052755;28;20402;-52
2021/10/12 08:00:31;;;;;;;25.05;17.25;;;;;;;12.88;59.45;99289.78;5052749;28;20027;-52
2021/10/12 08:02:59;;;;;;;23.45;16.15;;;;;;;12.81;59.90;99291.56;5052706;28;20033;-52
2021/10/12 08:05:25;;;;;;;28.75;17.83;;;;;;;12.69;59.99;99286.06;5052600;28;20025;-53
2021/10/12 08:07:52;;;;;;;26.42;17.55;;;;;;;12.73;60.56;99287.28;5052024;28;20021;-52
2021/10/12 08:10:19;;;;;;;20.98;16.25;;;;;;;12.75;60.23;99287.91;5052577;28;20021;-52
2021/10/12 08:12:46;;;;;;;28.27;17.77;;;;;;;12.74;60.01;99288.13;5051179;28;20120;-53
2021/10/12 08:15:12;;;;;;;23.73;15.55;;;;;;;12.66;60.53;99288.31;5052473;28;20024;-52
2021/10/12 08:17:39;;;;;;;27.00;16.17;;;;;;;12.65;60.87;99291.94;5052325;28;20541;-54
2021/10/12 08:20:07;;;;;;;19.55;17.00;;;;;;;12.63;60.66;99292.13;5050946;28;20033;-52
2021/10/12 08:22:34;;;;;;;24.48;16.80;;;;;;;12.55;60.79;99295.75;5052334;28;20398;-52
2021/10/12 08:25:00;;;;;;;25.80;16.98;;;;;;;12.50;60.98;99287.66;5052199;28;20040;-52
2021/10/12 08:27:25;;;;;;;24.45;16.67;;;;;;;12.67;60.94;99288.09;5052240;28;20021;-52
2021/10/12 08:29:51;;;;;;;30.60;18.20;;;;;;;12.95;60.67;99282.69;5052179;28;20060;-52
2021/10/12 08:32:17;;;;;;;19.35;14.73;;;;;;;13.10;59.88;99286.94;5051731;28;20061;-52
2021/10/12 08:34:42;;;;;;;22.83;16.92;;;;;;;13.09;59.64;99287.97;5052086;28;20021;-52
2021/10/12 08:37:11;;;;;;;30.83;17.20;;;;;;;13.12;59.84;99280.47;5052079;28;20025;-52
2021/10/12 08:39:41;;;;;;;28.75;16.27;;;;;;;13.21;59.77;99286.34;5052115;28;20029;-52
2021/10/12 08:42:21;;;;;;;21.08;16.25;;;;;;;13.45;59.40;99279.69;5052278;28;20052;-52
2021/10/12 08:44:54;;;;;;;30.27;17.10;;;;;;;13.65;58.64;99286.78;5050630;28;20556;-52
2021/10/12 08:47:20;;;;;;;24.80;16.70;;;;;;;13.59;58.70;99283.13;5050655;28;20033;-52
2021/10/12 08:49:46;;;;;;;25.75;16.20;;;;;;;13.52;58.85;99288.41;5050595;28;20022;-52
2021/10/12 08:52:12;;;;;;;24.77;16.60;;;;;;;13.59;58.48;99285.75;5051880;28;20028;-52
2021/10/12 08:54:41;;;;;;;22.63;15.95;;;;;;;13.73;58.32;99289.19;5050499;28;20407;-52
2021/10/12 08:57:06;;;;;;;23.73;15.65;;;;;;;13.81;57.56;99281.06;5051799;28;20028;-52
2021/10/12 08:59:32;;;;;;;18.52;14.55;;;;;;;13.77;57.42;99279.84;5051798;28;20021;-52
2021/10/12 09:02:02;;;;;;;22.52;13.68;;;;;;;13.77;57.02;99274.56;5050463;28;20040;-52
2021/10/12 09:04:54;;;;;;;22.60;15.68;;;;;;;14.00;57.09;99282.00;5051736;28;20028;-52
2021/10/12 09:07:26;;;;;;;19.95;13.57;;;;;;;14.31;56.41;99280.50;5049785;28;20040;-53
2021/10/12 09:09:54;;;;;;;20.52;13.15;;;;;;;14.61;55.35;99280.78;5050435;28;20025;-52
2021/10/12 09:12:43;;;;;;;22.00;14.13;;;;;;;14.70;54.75;99278.69;5051654;28;20017;-52
2021/10/12 09:15:10;;;;;;;18.83;13.50;;;;;;;14.78;54.71;99275.78;5051652;28;20044;-52
2021/10/12 09:17:40;;;;;;;23.25;14.10;;;;;;;14.90;54.28;99279.38;5051654;28;20048;-52
2021/10/12 09:20:11;;;;;;;21.80;14.93;;;;;;;15.00;54.15;99278.91;5052323;28;20081;-52
2021/10/12 09:23:00;;;;;;;21.23;14.27;;;;;;;14.91;53.93;99273.09;5055742;28;20025;-52
2021/10/12 09:25:34;;;;;;;27.15;15.18;;;;;;;14.86;54.50;99267.63;5055461;28;20064;-52
2021/10/12 09:28:00;;;;;;;23.50;14.10;;;;;;;14.95;54.13;99268.16;5055646;28;20032;-52
2021/10/12 09:30:31;;;;;;;18.73;13.88;;;;;;;15.00;53.86;99267.53;5055250;28;20017;-52
2021/10/12 09:33:04;;;;;;;23.33;14.73;;;;;;;15.08;53.49;99259.34;5054235;28;20086;-52
2021/10/12 09:35:32;;;;;;;20.15;13.73;;;;;;;15.23;53.12;99266.94;5055519;28;20056;-52
2021/10/12 09:38:06;;;;;;;21.35;15.00;;;;;;;15.36;52.81;99267.63;5054035;28;20029;-52
2021/10/12 09:40:35;;;;;;;21.13;15.57;;;;;;;15.49;52.42;99261.44;5054107;28;20495;-52
2021/10/12 09:43:00;;;;;;;19.20;14.73;;;;;;;15.53;52.31;99259.13;5055291;28;20024;-52
2021/10/12 09:45:44;;;;;;;20.77;13.77;;;;;;;15.66;52.31;99255.56;5055236;28;20017;-52
2021/10/12 09:48:45;;;;;;;18.25;13.93;;;;;;;16.74;52.56;99251.38;5055270;28;20047;-52
2021/10/12 09:51:13;;;;;;;22.85;13.63;;;;;;;18.13;47.62;99242.09;5013285;28;20158;-51
2021/10/12 09:53:42;;;;;;;20.17;13.20;;;;;;;18.71;45.59;99240.22;5013195;28;20033;-51
2021/10/12 09:56:09;;;;;;;20.70;12.85;;;;;;;18.97;44.33;99236.16;5013166;28;20106;-51
2021/10/12 09:58:36;;;;;;;20.33;13.10;;;;;;;18.89;44.80;99239.22;4996627;28;20038;-50
2021/10/12 10:01:05;;;;;;;21.08;13.35;;;;;;;18.98;43.80;99234.31;4996626;28;20018;-50
2021/10/12 10:03:31;;;;;;;19.95;14.55;;;;;;;19.00;43.88;99232.22;4996571;28;20030;-50
2021/10/12 10:06:21;;;;;;;26.45;13.60;;;;;;;19.01;44.10;99226.66;5012880;28;20053;-50
2021/10/12 10:08:51;;;;;;;18.52;13.10;;;;;;;18.99;43.71;99222.63;5012961;28;20033;-50
2021/10/12 10:11:17;;;;;;;20.40;14.15;;;;;;;19.23;43.53;99217.94;4996420;28;20120;-50
2021/10/12 10:13:44;;;;;;;18.13;12.27;;;;;;;19.39;43.03;99210.97;5012860;28;20377;-50
2021/10/12 10:16:11;;;;;;;17.73;12.45;;;;;;;19.21;43.04;99210.19;5012817;28;20050;-51
2021/10/12 10:18:41;;;;;;;17.65;12.45;;;;;;;18.87;43.42;99215.53;5012777;28;20054;-50
2021/10/12 10:21:10;;;;;;;15.32;13.35;;;;;;;19.32;43.17;99206.63;5012739;28;20029;-50
2021/10/12 10:24:00;;;;;;;24.58;13.50;;;;;;;19.66;42.44;99198.56;5012636;28;20552;-51
2021/10/12 10:26:28;;;;;;;16.33;12.85;;;;;;;19.64;42.26;99198.00;5054601;28;20021;-50
2021/10/12 10:28:55;;;;;;;24.40;13.43;;;;;;;19.43;42.38;99196.94;5054534;28;20076;-50
2021/10/12 10:31:39;;;;;;;26.05;13.57;;;;;;;19.13;42.92;99189.31;5053632;28;20155;-50
2021/10/12 10:34:34;;;;;;;21.35;14.05;;;;;;;19.23;43.81;99192.13;5054411;28;20021;-51
2021/10/12 10:37:15;;;;;;;28.63;14.68;;;;;;;19.51;43.47;99191.19;5054613;28;20064;-50
2021/10/12 10:39:46;;;;;;;23.33;14.43;;;;;;;19.32;43.68;99181.88;5052976;28;20410;-50
2021/10/12 10:42:43;;;;;;;20.42;13.90;;;;;;;18.88;43.69;99174.59;5054203;28;20096;-50
2021/10/12 10:45:12;;;;;;;19.48;14.85;;;;;;;18.39;44.85;99178.78;5054192;28;20053;-51
2021/10/12 10:47:41;;;;;;;26.67;15.00;;;;;;;18.36;45.28;99166.78;5054126;28;20079;-50
2021/10/12 10:50:16;;;;;;;21.35;14.57;;;;;;;18.49;45.14;99161.19;5054365;28;20060;-50
2021/10/12 10:52:42;;;;;;;18.35;14.57;;;;;;;19.44;44.81;99152.50;5053976;28;20029;-50
2021/10/12 10:55:09;;;;;;;21.42;13.23;;;;;;;21.17;41.53;99146.38;5053983;28;20040;-50
2021/10/12 10:57:35;;;;;;;19.08;13.40;;;;;;;21.35;39.05;99136.09;5054029;28;20025;-50
2021/10/12 11:00:16;;;;;;;19.73;14.18;;;;;;;20.68;39.70;99131.41;5052558;28;20017;-51
2021/10/12 11:02:46;;;;;;;16.85;13.73;;;;;;;20.13;40.88;99130.66;5053839;28;20021;-50
2021/10/12 11:05:30;;;;;;;19.27;12.65;;;;;;;19.80;41.25;99134.28;5053738;28;20028;-50
2021/10/12 11:08:21;;;;;;;22.65;12.70;;;;;;;20.54;40.32;99133.66;5053717;28;20441;-50
2021/10/12 11:10:49;;;;;;;16.23;12.30;;;;;;;21.14;38.59;99121.81;5053709;28;20415;-51
2021/10/12 11:13:35;;;;;;;18.35;13.25;;;;;;;21.00;38.80;99120.69;5053675;28;20406;-51
2021/10/12 11:16:07;;;;;;;22.88;12.82;;;;;;;20.85;38.66;99118.72;5052336;28;20033;-50
2021/10/12 11:18:33;;;;;;;18.65;11.70;;;;;;;20.35;39.34;99134.06;5053552;28;20021;-50
2021/10/12 11:21:02;;;;;;;21.92;12.95;;;;;;;20.82;38.86;99132.56;5052142;28;20083;-50
2021/10/12 11:23:34;;;;;;;17.58;11.35;;;;;;;20.97;38.56;99123.88;5052119;28;20033;-50